createdAt,value
2023-06-23T00:01:56.217Z,112877.31
2023-06-23T00:04:25.348Z,111583.06
2023-06-23T00:06:55.299Z,112618.41
2023-06-23T00:09:23.921Z,111841.88
2023-06-23T00:11:53.873Z,111841.88
2023-06-23T00:14:23.008Z,111324.28
2023-06-23T00:16:52.530Z,111065.50
2023-06-23T00:19:21.155Z,111324.28
2023-06-23T00:21:49.682Z,112100.69
2023-06-23T00:24:19.729Z,111841.88
2023-06-23T00:26:48.513Z,111324.28
2023-06-23T00:29:17.088Z,110806.75
2023-06-23T00:31:45.927Z,109771.94
2023-06-23T00:34:14.512Z,110030.59
2023-06-23T00:36:42.960Z,109771.94
2023-06-23T00:39:11.702Z,109771.94
2023-06-23T00:41:41.554Z,109513.28
2023-06-23T00:44:10.484Z,110289.28
2023-06-23T00:46:40.431Z,110548.00
2023-06-23T00:49:09.084Z,110030.59
2023-06-23T00:51:38.211Z,110030.59
2023-06-23T00:54:06.895Z,110030.59
2023-06-23T00:56:37.028Z,110289.28
2023-06-23T00:59:07.109Z,110289.28
2023-06-23T01:01:35.574Z,110030.59
2023-06-23T01:04:05.077Z,110030.59
2023-06-23T01:06:42.526Z,109771.94
2023-06-23T01:09:19.251Z,110289.28
2023-06-23T01:11:58.358Z,110548.00
2023-06-23T01:14:36.992Z,110030.59
2023-06-23T01:17:12.059Z,110030.59
2023-06-23T01:19:55.133Z,110548.00
2023-06-23T01:22:34.814Z,109771.94
2023-06-23T01:25:18.454Z,109513.28
2023-06-23T01:28:19.963Z,109771.94
2023-06-23T01:30:54.866Z,110030.59
2023-06-23T01:33:29.052Z,110030.59
2023-06-23T01:36:06.241Z,110030.59
2023-06-23T01:38:38.156Z,110030.59
2023-06-23T01:41:12.051Z,109771.94
2023-06-23T01:43:44.600Z,110030.59
2023-06-23T01:46:26.830Z,110030.59
2023-06-23T01:49:00.313Z,110030.59
2023-06-23T01:51:31.344Z,110289.28
2023-06-23T01:54:01.545Z,110806.75
2023-06-23T01:56:30.779Z,111065.50
2023-06-23T01:59:01.971Z,111065.50
2023-06-23T02:01:34.558Z,111583.06
2023-06-23T02:04:05.854Z,111583.06
2023-06-23T02:06:37.060Z,111841.88
2023-06-23T02:09:08.962Z,112100.69
2023-06-23T02:11:39.086Z,112100.69
2023-06-23T02:14:09.870Z,112359.53
2023-06-23T02:16:41.816Z,112100.69
2023-06-23T02:19:12.060Z,112100.69
2023-06-23T02:21:41.397Z,112359.53
2023-06-23T02:24:10.860Z,112877.31
2023-06-23T02:26:42.974Z,113136.22
2023-06-23T02:29:12.790Z,112877.31
2023-06-23T02:31:43.272Z,113136.22
2023-06-23T02:34:12.180Z,113395.13
2023-06-23T02:36:47.087Z,113395.13
2023-06-23T02:39:20.387Z,113654.06
2023-06-23T02:41:56.301Z,113654.06
2023-06-23T02:44:31.630Z,113395.13
2023-06-23T02:47:04.526Z,113654.06
2023-06-23T02:49:34.519Z,114172.03
2023-06-23T02:52:04.971Z,114172.03
2023-06-23T02:54:40.624Z,114172.03
2023-06-23T02:57:14.499Z,114431.03
2023-06-23T02:59:44.718Z,114690.03
2023-06-23T03:02:18.360Z,114690.03
2023-06-23T03:04:47.548Z,114949.09
2023-06-23T03:07:17.292Z,114690.03
2023-06-23T03:09:46.493Z,114949.09
2023-06-23T03:12:15.333Z,114949.09
2023-06-23T03:14:46.001Z,114949.09
2023-06-23T03:17:19.437Z,114949.09
2023-06-23T03:19:56.046Z,114949.09
2023-06-23T03:22:29.297Z,114690.03
2023-06-23T03:25:07.634Z,114949.09
2023-06-23T03:27:39.734Z,114949.09
2023-06-23T03:30:14.253Z,114949.09
2023-06-23T03:32:49.131Z,115208.13
2023-06-23T03:35:22.927Z,115208.13
2023-06-23T03:38:00.700Z,115208.13
2023-06-23T03:40:33.820Z,115208.13
2023-06-23T03:43:11.575Z,115208.13
2023-06-23T03:45:42.994Z,114949.09
2023-06-23T03:48:15.520Z,114949.09
2023-06-23T03:50:46.539Z,114690.03
2023-06-23T03:53:17.303Z,114690.03
2023-06-23T03:55:51.162Z,114690.03
2023-06-23T03:58:21.810Z,114431.03
2023-06-23T04:00:53.107Z,114431.03
2023-06-23T04:03:25.722Z,114431.03
2023-06-23T04:05:57.149Z,114431.03
2023-06-23T04:08:27.550Z,114431.03
2023-06-23T04:11:00.283Z,114172.03
2023-06-23T04:13:31.174Z,113913.03
2023-06-23T04:16:01.968Z,113913.03
2023-06-23T04:18:34.110Z,113654.06
2023-06-23T04:21:05.795Z,113654.06
2023-06-23T04:23:36.835Z,113654.06
2023-06-23T04:26:08.446Z,113654.06
2023-06-23T04:28:38.051Z,113654.06
2023-06-23T04:31:09.925Z,113136.22
2023-06-23T04:33:39.998Z,112359.53
2023-06-23T04:36:14.493Z,112359.53
2023-06-23T04:38:48.907Z,112359.53
2023-06-23T04:41:21.646Z,111583.06
2023-06-23T04:43:55.465Z,111324.28
2023-06-23T04:46:25.838Z,111324.28
2023-06-23T04:48:59.385Z,111841.88
2023-06-23T04:51:34.071Z,111324.28
2023-06-23T04:54:08.883Z,111065.50
2023-06-23T04:56:39.570Z,110806.75
2023-06-23T04:59:11.055Z,110289.28
2023-06-23T05:01:41.089Z,110030.59
2023-06-23T05:04:12.729Z,110289.28
2023-06-23T05:06:44.047Z,109513.28
2023-06-23T05:09:15.151Z,110289.28
2023-06-23T05:11:45.665Z,109513.28
2023-06-23T05:14:17.915Z,109513.28
2023-06-23T05:16:47.239Z,109771.94
2023-06-23T05:19:18.650Z,109513.28
2023-06-23T05:21:47.860Z,109254.63
2023-06-23T05:24:17.969Z,109771.94
2023-06-23T05:26:48.457Z,109254.63
2023-06-23T05:29:19.940Z,109771.94
2023-06-23T05:31:52.015Z,108478.84
2023-06-23T05:34:25.866Z,108220.28
2023-06-23T05:36:55.661Z,108478.84
2023-06-23T05:39:28.157Z,107961.72
2023-06-23T05:41:56.939Z,108220.28
2023-06-23T05:44:25.829Z,108220.28
2023-06-23T05:46:58.428Z,107186.22
2023-06-23T05:49:32.765Z,107186.22
2023-06-23T05:52:04.997Z,106152.47
2023-06-23T05:54:40.136Z,107186.22
2023-06-23T05:57:20.677Z,105894.09
2023-06-23T05:59:56.797Z,105377.34
2023-06-23T06:02:31.129Z,105894.09
2023-06-23T06:05:02.920Z,105377.34
2023-06-23T06:07:33.776Z,105377.34
2023-06-23T06:10:04.832Z,105894.09
2023-06-23T06:12:36.072Z,105377.34
2023-06-23T06:15:07.634Z,105119.03
2023-06-23T06:17:38.169Z,104860.72
2023-06-23T06:20:10.806Z,103311.25
2023-06-23T06:22:42.288Z,102794.91
2023-06-23T06:25:13.198Z,104602.44
2023-06-23T06:27:45.881Z,102794.91
2023-06-23T06:30:15.939Z,103569.44
2023-06-23T06:32:46.148Z,103053.06
2023-06-23T06:35:18.479Z,100214.34
2023-06-23T06:37:49.847Z,100988.31
2023-06-23T06:40:24.740Z,99956.41
2023-06-23T06:42:53.412Z,100988.31
2023-06-23T06:45:22.074Z,98924.81
2023-06-23T06:47:51.942Z,97893.50
2023-06-23T06:50:23.036Z,96089.47
2023-06-23T06:52:52.775Z,96089.47
2023-06-23T06:55:23.639Z,93513.91
2023-06-23T06:57:52.781Z,94801.44
2023-06-23T07:00:25.720Z,94801.44
2023-06-23T07:02:57.513Z,94543.91
2023-06-23T07:05:27.674Z,92999.00
2023-06-23T07:07:56.472Z,89139.81
2023-06-23T07:10:24.968Z,84000.91
2023-06-23T07:12:53.568Z,85798.66
2023-06-23T07:15:22.402Z,76819.28
2023-06-23T07:17:51.003Z,78356.94
2023-06-23T07:20:19.532Z,80408.22
2023-06-23T07:22:49.425Z,73490.06
2023-06-23T07:25:18.052Z,75282.31
2023-06-23T07:27:49.655Z,74002.03
2023-06-23T07:30:18.936Z,74258.06
2023-06-23T07:32:47.837Z,69099.41
2023-06-23T07:35:16.313Z,64475.03
2023-06-23T07:37:44.912Z,63210.75
2023-06-23T07:40:15.537Z,61008.38
2023-06-23T07:42:44.140Z,60400.72
2023-06-23T07:45:13.042Z,59386.88
2023-06-23T07:47:41.576Z,58785.50
2023-06-23T07:50:10.877Z,57075.53
2023-06-23T07:52:39.417Z,57417.84
2023-06-23T07:55:08.676Z,56552.16
2023-06-23T07:57:38.844Z,57445.72
2023-06-23T08:00:09.810Z,57622.84
2023-06-23T08:02:43.395Z,57226.78
2023-06-23T08:05:12.990Z,55804.06
2023-06-23T08:07:41.944Z,55744.38
2023-06-23T08:10:11.368Z,55676.72
2023-06-23T08:12:42.001Z,55332.59
2023-06-23T08:15:11.635Z,55129.69
2023-06-23T08:17:40.463Z,55016.34
2023-06-23T08:20:10.354Z,54747.84
2023-06-23T08:22:41.958Z,54475.38
2023-06-23T08:25:11.391Z,54409.75
2023-06-23T08:27:41.563Z,54139.31
2023-06-23T08:30:11.035Z,54043.88
2023-06-23T08:32:39.735Z,54143.28
2023-06-23T08:35:10.612Z,53892.75
2023-06-23T08:37:41.714Z,53994.16
2023-06-23T08:40:11.763Z,54067.75
2023-06-23T08:42:42.550Z,54113.47
2023-06-23T08:45:14.650Z,54187.03
2023-06-23T08:47:48.415Z,54131.38
2023-06-23T08:50:17.480Z,54016.03
2023-06-23T08:52:46.844Z,54027.97
2023-06-23T08:55:15.690Z,53992.19
2023-06-23T08:57:45.967Z,53896.75
2023-06-23T09:00:15.429Z,53858.97
2023-06-23T09:02:44.280Z,53765.50
2023-06-23T09:05:14.066Z,53765.50
2023-06-23T09:07:43.924Z,53761.53
2023-06-23T09:10:14.099Z,53825.16
2023-06-23T09:13:11.432Z,53727.75
2023-06-23T09:15:55.817Z,53699.91
2023-06-23T09:18:31.871Z,53664.13
2023-06-23T09:21:03.141Z,53600.50
2023-06-23T09:23:33.457Z,53596.53
2023-06-23T09:26:05.061Z,53602.47
2023-06-23T09:28:37.546Z,53566.69
2023-06-23T09:31:12.370Z,53530.91
2023-06-23T09:33:49.130Z,53499.09
2023-06-23T09:36:21.092Z,53497.13
2023-06-23T09:38:53.568Z,53517.00
2023-06-23T09:41:22.545Z,53485.19
2023-06-23T09:43:53.490Z,53459.34
2023-06-23T09:46:23.968Z,53473.25
2023-06-23T09:48:53.514Z,53465.31
2023-06-23T09:51:22.807Z,53433.50
2023-06-23T09:53:52.934Z,53423.56
2023-06-23T09:56:23.333Z,53439.47
2023-06-23T09:58:53.456Z,53441.44
2023-06-23T10:01:23.117Z,53415.59
2023-06-23T10:03:56.490Z,53407.66
2023-06-23T10:06:27.347Z,53403.69
2023-06-23T10:08:57.600Z,53387.78
2023-06-23T10:11:34.259Z,53375.84
2023-06-23T10:14:07.535Z,53383.78
2023-06-23T10:16:36.972Z,53399.69
2023-06-23T10:19:06.242Z,53411.63
2023-06-23T10:21:35.468Z,53377.84
2023-06-23T10:24:06.387Z,53369.88
2023-06-23T10:26:36.394Z,53350.00
2023-06-23T10:29:08.603Z,53350.00
2023-06-23T10:31:38.293Z,53371.88
2023-06-23T10:34:08.793Z,53330.13
2023-06-23T10:36:42.640Z,53336.09
2023-06-23T10:39:13.347Z,53361.94
2023-06-23T10:41:47.215Z,53373.84
2023-06-23T10:44:18.070Z,53359.94
2023-06-23T10:46:47.358Z,53363.91
2023-06-23T10:49:21.219Z,53326.16
2023-06-23T10:51:51.941Z,53316.22
2023-06-23T10:54:28.699Z,53310.25
2023-06-23T10:56:57.704Z,53320.19
2023-06-23T10:59:30.056Z,53320.19
2023-06-23T11:02:20.424Z,53302.28
2023-06-23T11:04:57.803Z,53284.41
2023-06-23T11:07:27.854Z,53286.38
2023-06-23T11:10:07.474Z,53304.28
2023-06-23T11:12:44.450Z,53304.28
2023-06-23T11:15:29.449Z,53286.38
2023-06-23T11:18:05.496Z,53268.50
2023-06-23T11:20:36.424Z,53248.63
2023-06-23T11:23:07.811Z,53284.41
2023-06-23T11:25:39.987Z,53278.44
2023-06-23T11:28:29.592Z,53236.69
2023-06-23T11:31:09.353Z,53294.34
2023-06-23T11:33:39.292Z,53304.28
2023-06-23T11:36:09.625Z,53288.38
2023-06-23T11:38:40.496Z,53238.69
2023-06-23T11:41:09.866Z,53244.63
2023-06-23T11:43:40.007Z,53294.34
2023-06-23T11:46:12.538Z,53220.78
2023-06-23T11:48:42.261Z,53260.53
2023-06-23T11:51:15.305Z,53220.78
2023-06-23T11:53:44.335Z,53248.63
2023-06-23T11:56:17.549Z,53258.56
2023-06-23T11:58:51.495Z,53234.69
2023-06-23T12:01:21.940Z,53218.81
2023-06-23T12:03:50.841Z,53250.59
2023-06-23T12:06:20.612Z,53248.63
2023-06-23T12:08:51.034Z,53190.97
2023-06-23T12:11:20.248Z,53254.59
2023-06-23T12:13:49.851Z,53236.69
2023-06-23T12:16:19.623Z,53270.47
2023-06-23T12:18:51.345Z,53188.97
2023-06-23T12:21:21.953Z,53175.06
2023-06-23T12:23:50.757Z,53220.78
2023-06-23T12:26:21.003Z,53187.00
2023-06-23T12:28:50.663Z,53181.03
2023-06-23T12:31:28.703Z,53173.06
2023-06-23T12:34:02.496Z,53244.63
2023-06-23T12:36:31.205Z,53240.66
2023-06-23T12:39:01.378Z,53173.06
2023-06-23T12:41:30.860Z,53179.03
2023-06-23T12:44:01.802Z,53161.16
2023-06-23T12:46:32.379Z,53284.41
2023-06-23T12:49:02.452Z,53167.13
2023-06-23T12:51:35.338Z,53190.97
2023-06-23T12:54:04.434Z,53248.63
2023-06-23T12:56:37.111Z,53145.25
2023-06-23T12:59:05.795Z,53185.00
2023-06-23T13:01:34.698Z,53141.28
2023-06-23T13:04:05.138Z,53139.28
2023-06-23T13:06:33.856Z,53145.25
2023-06-23T13:09:02.488Z,53173.06
2023-06-23T13:11:32.200Z,53250.59
2023-06-23T13:14:01.046Z,53200.91
2023-06-23T13:16:29.647Z,53149.22
2023-06-23T13:18:58.213Z,53190.97
2023-06-23T13:21:28.258Z,53192.94
2023-06-23T13:23:58.622Z,53161.16
2023-06-23T13:26:28.984Z,53272.47
2023-06-23T13:28:57.517Z,53246.63
2023-06-23T13:31:26.232Z,53224.75
2023-06-23T13:33:54.852Z,53240.66
2023-06-23T13:36:23.411Z,53260.53
2023-06-23T13:38:53.466Z,53238.69
2023-06-23T13:41:21.889Z,53149.22
2023-06-23T13:43:51.071Z,53208.84
2023-06-23T13:46:20.353Z,53278.44
2023-06-23T13:48:49.280Z,53248.63
2023-06-23T13:51:17.847Z,53218.81
2023-06-23T13:53:46.325Z,53171.09
2023-06-23T13:56:16.336Z,53188.97
2023-06-23T13:58:44.918Z,53188.97
2023-06-23T14:01:13.447Z,53262.53
2023-06-23T14:03:41.994Z,53151.22
2023-06-23T14:06:10.774Z,53198.91
2023-06-23T14:08:41.740Z,53181.03
2023-06-23T14:11:10.400Z,53220.78
2023-06-23T14:13:41.691Z,53248.63
2023-06-23T14:16:13.634Z,53161.16
2023-06-23T14:18:42.669Z,53192.94
2023-06-23T14:21:13.150Z,53181.03
2023-06-23T14:23:41.929Z,53188.97
2023-06-23T14:26:10.483Z,53177.06
2023-06-23T14:28:40.489Z,53200.91
2023-06-23T14:31:09.456Z,53188.97
2023-06-23T14:33:38.033Z,53214.81
2023-06-23T14:36:06.802Z,53192.94
2023-06-23T14:38:35.422Z,53234.69
2023-06-23T14:41:04.019Z,53179.03
2023-06-23T14:43:32.673Z,53192.94
2023-06-23T14:46:04.227Z,53188.97
2023-06-23T14:48:33.264Z,53210.84
2023-06-23T14:51:02.058Z,53196.94
2023-06-23T14:53:31.366Z,53208.84
2023-06-23T14:56:00.016Z,53218.81
2023-06-23T14:58:28.922Z,53232.72
2023-06-23T15:00:59.063Z,53212.84
2023-06-23T15:03:29.240Z,53204.88
2023-06-23T15:05:58.224Z,53192.94
2023-06-23T15:08:26.884Z,53202.91
2023-06-23T15:10:56.273Z,53212.84
2023-06-23T15:13:24.928Z,53242.66
2023-06-23T15:15:53.745Z,53238.69
2023-06-23T15:18:22.344Z,53210.84
2023-06-23T15:20:52.430Z,53230.72
2023-06-23T15:23:21.164Z,53228.75
2023-06-23T15:25:49.864Z,53224.75
2023-06-23T15:28:29.570Z,53202.91
2023-06-23T15:30:58.821Z,53206.88
2023-06-23T15:33:29.352Z,53216.81
2023-06-23T15:36:00.609Z,53216.81
2023-06-23T15:38:29.177Z,53165.13
2023-06-23T15:40:57.818Z,53185.00
2023-06-23T15:43:26.655Z,53236.69
2023-06-23T15:45:55.409Z,53232.72
2023-06-23T15:48:25.262Z,53214.81
2023-06-23T15:50:54.992Z,53210.84
2023-06-23T15:53:25.372Z,53232.72
2023-06-23T15:55:54.033Z,53214.81
2023-06-23T15:58:22.577Z,53204.88
2023-06-23T16:00:51.306Z,53216.81
2023-06-23T16:03:20.244Z,53208.84
2023-06-23T16:05:49.338Z,53236.69
2023-06-23T16:08:18.415Z,53188.97
2023-06-23T16:10:48.411Z,53218.81
2023-06-23T16:13:17.103Z,53204.88
2023-06-23T16:15:45.847Z,53224.75
2023-06-23T16:18:14.533Z,53222.78
2023-06-23T16:20:44.573Z,53216.81
2023-06-23T16:23:13.775Z,53236.69
2023-06-23T16:25:42.329Z,53212.84
2023-06-23T16:28:12.403Z,53185.00
2023-06-23T16:30:41.234Z,53188.97
2023-06-23T16:33:10.066Z,53200.91
2023-06-23T16:35:38.605Z,53206.88
2023-06-23T16:38:07.765Z,53216.81
2023-06-23T16:40:36.267Z,53208.84
2023-06-23T16:43:05.701Z,53194.94
2023-06-23T16:45:36.043Z,53200.91
2023-06-23T16:48:05.167Z,53208.84
2023-06-23T16:50:35.253Z,53194.94
2023-06-23T16:53:05.171Z,53200.91
2023-06-23T16:55:33.924Z,53216.81
2023-06-23T16:58:02.503Z,53175.06
2023-06-23T17:00:31.085Z,53212.84
2023-06-23T17:03:01.509Z,53183.00
2023-06-23T17:05:30.443Z,53208.84
2023-06-23T17:07:59.643Z,53212.84
2023-06-23T17:10:28.194Z,53220.78
2023-06-23T17:12:56.731Z,53204.88
2023-06-23T17:15:25.233Z,53212.84
2023-06-23T17:17:53.775Z,53181.03
2023-06-23T17:20:23.980Z,53190.97
2023-06-23T17:22:52.960Z,53177.06
2023-06-23T17:25:21.418Z,53188.97
2023-06-23T17:27:52.904Z,53200.91
2023-06-23T17:30:21.685Z,53198.91
2023-06-23T17:32:50.389Z,53200.91
2023-06-23T17:35:19.014Z,53200.91
2023-06-23T17:37:49.157Z,53190.97
2023-06-23T17:40:21.227Z,53206.88
2023-06-23T17:42:49.748Z,53206.88
2023-06-23T17:45:18.292Z,53200.91
2023-06-23T17:47:47.102Z,53167.13
2023-06-23T17:50:16.656Z,53204.88
2023-06-23T17:52:45.681Z,53188.97
2023-06-23T17:55:15.533Z,53202.91
2023-06-23T17:57:44.084Z,53212.84
2023-06-23T18:00:14.068Z,53208.84
2023-06-23T18:02:43.567Z,53198.91
2023-06-23T18:05:12.258Z,53206.88
2023-06-23T18:07:40.764Z,53220.78
2023-06-23T18:10:10.144Z,53206.88
2023-06-23T18:12:40.100Z,53188.97
2023-06-23T18:15:09.658Z,53171.09
2023-06-23T18:17:38.267Z,53192.94
2023-06-23T18:20:08.299Z,53210.84
2023-06-23T18:22:37.197Z,53240.66
2023-06-23T18:25:06.845Z,53204.88
2023-06-23T18:27:35.328Z,53192.94
2023-06-23T18:30:05.912Z,53208.84
2023-06-23T18:32:44.865Z,53224.75
2023-06-23T18:35:15.147Z,53224.75
2023-06-23T18:37:44.815Z,53212.84
2023-06-23T18:40:14.320Z,53218.81
2023-06-23T18:42:44.032Z,53236.69
2023-06-23T18:45:15.095Z,53226.75
2023-06-23T18:47:43.781Z,53212.84
2023-06-23T18:50:12.868Z,53228.75
2023-06-23T18:52:41.408Z,53234.69
2023-06-23T18:55:11.041Z,53230.72
2023-06-23T18:57:39.554Z,53288.38
2023-06-23T19:00:09.515Z,53316.22
2023-06-23T19:02:39.560Z,53336.09
2023-06-23T19:05:08.698Z,53344.03
2023-06-23T19:07:37.338Z,53371.88
2023-06-23T19:10:06.519Z,53389.75
2023-06-23T19:12:35.327Z,53381.81
2023-06-23T19:15:03.955Z,53383.78
2023-06-23T19:17:33.039Z,53411.63
2023-06-23T19:20:05.362Z,53461.31
2023-06-23T19:22:34.551Z,53437.47
2023-06-23T19:25:03.280Z,53487.19
2023-06-23T19:27:31.888Z,53532.91
2023-06-23T19:30:00.671Z,53574.66
2023-06-23T19:32:30.169Z,53582.59
2023-06-23T19:34:58.800Z,53582.59
2023-06-23T19:37:28.965Z,53562.72
2023-06-23T19:40:00.602Z,53576.63
2023-06-23T19:42:30.124Z,53638.28
2023-06-23T19:44:58.632Z,53664.13
2023-06-23T19:47:27.246Z,53662.13
2023-06-23T19:49:55.881Z,53652.19
2023-06-23T19:52:26.624Z,53693.94
2023-06-23T19:54:57.531Z,53765.50
2023-06-23T19:57:26.235Z,53821.19
2023-06-23T19:59:54.960Z,53896.75
2023-06-23T20:02:23.959Z,53908.66
2023-06-23T20:04:52.955Z,53884.81
2023-06-23T20:07:22.125Z,53827.16
2023-06-23T20:09:50.828Z,53904.69
2023-06-23T20:12:20.773Z,53994.16
2023-06-23T20:14:52.113Z,54077.69
2023-06-23T20:17:20.968Z,54187.03
2023-06-23T20:19:50.108Z,54252.66
2023-06-23T20:22:19.293Z,54300.38
2023-06-23T20:24:47.922Z,54447.53
2023-06-23T20:27:16.614Z,54457.47
2023-06-23T20:29:47.111Z,54556.91
2023-06-23T20:32:16.494Z,54648.41
2023-06-23T20:34:46.666Z,54813.47
2023-06-23T20:37:15.526Z,54986.50
2023-06-23T20:39:44.339Z,55284.84
2023-06-23T20:42:12.940Z,55507.63
2023-06-23T20:44:41.738Z,55780.19
2023-06-23T20:47:13.453Z,56003.00
2023-06-23T20:49:42.166Z,56321.34
2023-06-23T20:52:11.210Z,56597.91
2023-06-23T20:54:39.867Z,56709.34
2023-06-23T20:57:08.514Z,56804.88
2023-06-23T20:59:37.442Z,56568.06
2023-06-23T21:02:07.720Z,56673.53
2023-06-23T21:04:39.322Z,56773.03
2023-06-23T21:07:09.221Z,57129.25
2023-06-23T21:09:38.089Z,57184.97
2023-06-23T21:12:09.807Z,57037.72
2023-06-23T21:14:40.836Z,56880.50
2023-06-23T21:17:13.123Z,56956.13
2023-06-23T21:19:43.096Z,57077.50
2023-06-23T21:22:11.747Z,57121.28
2023-06-23T21:24:40.402Z,57147.16
2023-06-23T21:27:09.556Z,57417.84
2023-06-23T21:29:38.191Z,58015.00
2023-06-23T21:32:08.523Z,58305.66
2023-06-23T21:34:37.052Z,58887.06
2023-06-23T21:37:07.841Z,58869.13
2023-06-23T21:39:36.340Z,58958.75
2023-06-23T21:42:05.037Z,58765.59
2023-06-23T21:44:33.527Z,58948.78
2023-06-23T21:47:02.232Z,59052.31
2023-06-23T21:49:30.816Z,58829.31
2023-06-23T21:52:00.331Z,58895.00
2023-06-23T21:54:30.272Z,59161.84
2023-06-23T21:56:59.601Z,59102.09
2023-06-23T21:59:28.136Z,59926.63
2023-06-23T22:01:56.743Z,60241.34
2023-06-23T22:04:25.295Z,60655.72
2023-06-23T22:06:54.022Z,60673.66
2023-06-23T22:09:22.588Z,61568.28
2023-06-23T22:11:54.222Z,62843.91
2023-06-23T22:14:26.290Z,63182.84
2023-06-23T22:16:55.793Z,63984.41
2023-06-23T22:19:25.156Z,64313.47
2023-06-23T22:21:54.141Z,65221.06
2023-06-23T22:24:22.725Z,65185.13
2023-06-23T22:26:52.644Z,66304.47
2023-06-23T22:29:21.140Z,66977.03
2023-06-23T22:31:49.760Z,67605.81
2023-06-23T22:34:18.404Z,69011.53
2023-06-23T22:36:47.276Z,68602.13
2023-06-23T22:39:15.785Z,70048.22
2023-06-23T22:41:44.541Z,70455.78
2023-06-23T22:44:14.481Z,70671.56
2023-06-23T22:46:42.996Z,72210.47
2023-06-23T22:49:11.581Z,70779.47
2023-06-23T22:51:40.466Z,74002.03
2023-06-23T22:54:08.966Z,76050.72
2023-06-23T22:56:37.407Z,77075.53
2023-06-23T22:59:06.196Z,77588.03
2023-06-23T23:01:36.197Z,77075.53
2023-06-23T23:04:04.792Z,78869.66
2023-06-23T23:06:33.492Z,78869.66
2023-06-23T23:09:01.977Z,81690.91
2023-06-23T23:11:30.851Z,83744.16
2023-06-23T23:13:59.978Z,83744.16
2023-06-23T23:16:28.435Z,84771.25
2023-06-23T23:18:58.481Z,82974.03
2023-06-23T23:21:27.860Z,84514.44
2023-06-23T23:23:56.408Z,85284.91
2023-06-23T23:26:25.473Z,84771.25
2023-06-23T23:28:54.957Z,85541.78
2023-06-23T23:31:25.437Z,85798.66
2023-06-23T23:33:55.535Z,84000.91
2023-06-23T23:36:26.206Z,84514.44
2023-06-23T23:38:54.872Z,85284.91
2023-06-23T23:41:23.546Z,85541.78
2023-06-23T23:43:54.346Z,85798.66
2023-06-23T23:46:23.053Z,87340.31
2023-06-23T23:48:52.378Z,89139.81
2023-06-23T23:51:20.867Z,90682.97
2023-06-23T23:53:50.827Z,90168.50
2023-06-23T23:56:19.328Z,89654.13
2023-06-23T23:58:48.081Z,89911.31
